Time;durP1;ratioP1;P1;durP2;ratioP2;P2;SDS_P1;SDS_P2;PMS_P1;PMS_P2;Temp;Humidity;BMP_temperature;BMP_pressure;BME280_temperature;BME280_humidity;BME280_pressure;Samples;Min_cycle;Max_cycle;Signal;HPM_P1;HPM_P2
2022/02/20 00:00:44;;;;;;;11.55;2.53;;;;;;;2.88;91.83;98547.50;5047501;28;20111;-79
2022/02/20 00:03:09;;;;;;;19.33;2.80;;;;;;;2.84;91.79;98539.81;5047667;28;20468;-80
2022/02/20 00:05:36;;;;;;;10.68;2.05;;;;;;;2.85;91.44;98544.13;5047697;28;20017;-81
2022/02/20 00:08:02;;;;;;;11.63;2.55;;;;;;;2.83;91.54;98539.84;5065691;28;20033;-79
2022/02/20 00:10:27;;;;;;;16.42;3.30;;;;;;;2.80;91.42;98533.03;5065320;28;20381;-78
2022/02/20 00:12:53;;;;;;;20.20;2.33;;;;;;;2.75;91.43;98547.56;5065844;28;20017;-79
2022/02/20 00:15:18;;;;;;;12.02;2.83;;;;;;;2.68;91.64;98545.94;5065323;28;20021;-76
2022/02/20 00:17:45;;;;;;;14.60;2.92;;;;;;;2.64;91.55;98544.22;5065365;28;20377;-76
2022/02/20 00:20:11;;;;;;;11.68;2.53;;;;;;;2.64;91.45;98547.66;5065439;28;20035;-77
2022/02/20 00:22:36;;;;;;;13.88;2.53;;;;;;;2.63;nan;98551.09;5065471;28;20048;-77
2022/02/20 00:25:04;;;;;;;22.42;3.83;;;;;;;2.62;91.70;98557.06;5065391;28;20037;-77
2022/02/20 00:27:30;;;;;;;17.52;2.67;;;;;;;2.69;91.89;98558.72;5047436;28;20021;-77
2022/02/20 00:29:55;;;;;;;18.45;3.28;;;;;;;2.74;91.88;98561.25;5065331;28;20025;-77
2022/02/20 00:32:20;;;;;;;15.45;2.97;;;;;;;2.81;92.04;98568.03;5065274;28;20093;-76
2022/02/20 00:34:46;;;;;;;13.13;2.35;;;;;;;2.77;92.27;98561.25;5046256;28;20032;-77
2022/02/20 00:37:12;;;;;;;6.75;1.67;;;;;;;2.80;92.03;98555.22;5064706;28;20060;-77
2022/02/20 00:39:37;;;;;;;10.52;2.00;;;;;;;2.79;92.02;98556.97;5065209;28;20603;-77
2022/02/20 00:42:03;;;;;;;12.45;1.75;;;;;;;2.82;91.88;98569.75;5064951;28;20040;-76
2022/02/20 00:44:28;;;;;;;6.70;1.50;;;;;;;2.83;91.96;98576.56;5073913;28;20056;-77
2022/02/20 00:46:54;;;;;;;8.60;1.65;;;;;;;2.88;91.50;98584.25;5070950;28;20017;-78
2022/02/20 00:49:19;;;;;;;10.27;1.73;;;;;;;2.84;91.73;98580.00;5065355;28;20020;-79
2022/02/20 00:51:44;;;;;;;7.85;1.52;;;;;;;2.83;91.60;98578.28;5064666;28;20028;-78
2022/02/20 00:54:10;;;;;;;11.02;2.67;;;;;;;2.79;91.58;98585.16;5046505;28;20047;-78
2022/02/20 00:56:36;;;;;;;9.35;1.30;;;;;;;2.82;91.53;98594.53;5064582;28;20467;-77
2022/02/20 00:59:03;;;;;;;7.05;1.20;;;;;;;2.76;nan;98600.56;5046566;28;20104;-76
2022/02/20 01:01:28;;;;;;;11.00;1.65;;;;;;;2.81;91.61;98601.34;5046731;28;20029;-77
2022/02/20 01:03:53;;;;;;;7.97;1.98;;;;;;;2.76;91.47;98592.88;5064585;28;20025;-76
2022/02/20 01:06:19;;;;;;;3.47;1.15;;;;;;;2.78;91.68;98603.09;5064571;28;20017;-75
2022/02/20 01:08:45;;;;;;;8.93;1.50;;;;;;;2.82;91.52;98620.16;5064540;28;20112;-75
2022/02/20 01:11:10;;;;;;;8.88;1.55;;;;;;;2.81;91.62;98613.34;5063380;28;20438;-75
2022/02/20 01:13:36;;;;;;;8.68;1.13;;;;;;;2.81;91.73;98618.47;5064166;28;20481;-76
2022/02/20 01:16:02;;;;;;;5.03;1.17;;;;;;;2.78;92.01;98613.38;5064111;28;20028;-75
2022/02/20 01:18:27;;;;;;;6.72;1.10;;;;;;;2.79;91.71;98630.44;5064228;28;20027;-75
2022/02/20 01:20:53;;;;;;;9.65;1.30;;;;;;;2.78;91.50;98631.31;5064203;28;20045;-75
2022/02/20 01:23:18;;;;;;;4.10;1.00;;;;;;;2.66;91.61;98620.25;5064541;28;20017;-76
2022/02/20 01:25:43;;;;;;;7.65;2.08;;;;;;;2.66;91.24;98629.63;5063372;28;20056;-75
2022/02/20 01:28:09;;;;;;;3.83;0.90;;;;;;;2.58;91.13;98630.53;5063962;28;20048;-76
2022/02/20 01:30:34;;;;;;;2.97;1.05;;;;;;;2.33;91.00;98592.19;5063760;28;20021;-76
2022/02/20 01:32:59;;;;;;;4.32;0.90;;;;;;;2.47;91.16;98630.59;5063832;28;20477;-76
2022/02/20 01:35:25;;;;;;;8.15;1.10;;;;;;;2.42;91.18;98632.31;5063410;28;20036;-76
2022/02/20 01:37:50;;;;;;;2.92;1.05;;;;;;;2.35;90.84;98626.34;5063834;28;20024;-76
2022/02/20 01:40:16;;;;;;;9.30;2.00;;;;;;;2.29;90.91;98634.06;5045315;28;20033;-76
2022/02/20 01:42:42;;;;;;;4.63;1.15;;;;;;;2.16;90.62;98619.56;5063561;28;20025;-76
2022/02/20 01:45:13;;;;;;;2.67;0.90;;;;;;;2.11;90.68;98632.38;5045371;28;20048;-77
2022/02/20 01:47:39;;;;;;;4.30;1.10;;;;;;;1.97;90.57;98614.50;5063169;28;20092;-78
2022/02/20 01:50:05;;;;;;;2.15;1.17;;;;;;;1.93;90.50;98634.13;5063590;28;20108;-76
2022/02/20 01:52:30;;;;;;;3.33;1.05;;;;;;;1.86;90.49;98642.69;5063491;28;20028;-76
2022/02/20 01:54:56;;;;;;;4.70;2.08;;;;;;;1.75;90.46;98649.53;5063151;28;20028;-76
2022/02/20 01:57:21;;;;;;;4.28;1.10;;;;;;;1.65;90.38;98648.66;5045286;28;20032;-77
2022/02/20 01:59:47;;;;;;;7.55;1.10;;;;;;;1.60;90.09;98656.34;5063345;28;20063;-78
2022/02/20 02:02:12;;;;;;;7.20;1.55;;;;;;;1.51;90.17;98661.47;5063314;28;20032;-78
2022/02/20 02:04:38;;;;;;;7.43;1.58;;;;;;;1.45;90.14;98659.78;5063081;28;20040;-76
2022/02/20 02:07:03;;;;;;;6.35;1.02;;;;;;;1.16;90.23;98630.78;5063167;28;20094;-77
2022/02/20 02:09:29;;;;;;;12.40;1.42;;;;;;;1.29;90.12;98661.47;5063087;28;20025;-77
2022/02/20 02:11:54;;;;;;;4.07;1.05;;;;;;;1.21;90.07;98664.00;5062916;28;20043;-77
2022/02/20 02:14:19;;;;;;;3.63;1.20;;;;;;;1.08;90.17;98658.00;5044990;28;20029;-77
2022/02/20 02:16:45;;;;;;;9.05;1.38;;;;;;;1.12;90.19;98667.38;5063084;28;20086;-77
2022/02/20 02:19:10;;;;;;;7.35;1.10;;;;;;;1.02;90.32;98666.53;5062915;28;20064;-77
2022/02/20 02:21:36;;;;;;;5.13;1.08;;;;;;;0.98;90.20;98663.13;5062822;28;20024;-77
2022/02/20 02:24:01;;;;;;;6.10;1.20;;;;;;;0.93;90.36;98682.69;5045064;28;20468;-77
2022/02/20 02:26:27;;;;;;;6.85;0.95;;;;;;;0.96;90.38;98679.28;5062531;28;20045;-77
2022/02/20 02:28:52;;;;;;;10.73;1.27;;;;;;;0.92;90.38;98681.00;5062952;28;20021;-77
2022/02/20 02:31:18;;;;;;;6.25;1.33;;;;;;;0.89;90.39;98688.66;5044817;28;20021;-77
2022/02/20 02:33:49;;;;;;;6.63;2.38;;;;;;;0.79;90.35;98686.88;5044714;28;20595;-77
2022/02/20 02:36:15;;;;;;;4.78;1.40;;;;;;;0.80;90.28;98688.63;5044971;28;20035;-77
2022/02/20 02:38:41;;;;;;;5.43;1.33;;;;;;;0.74;90.28;98708.19;5063014;28;20549;-76
2022/02/20 02:41:07;;;;;;;6.63;1.00;;;;;;;0.66;90.35;98698.75;5062577;28;20071;-78
2022/02/20 02:43:34;;;;;;;7.43;1.30;;;;;;;0.59;90.59;98708.13;5063142;28;20100;-77
2022/02/20 02:46:00;;;;;;;3.08;1.23;;;;;;;0.58;90.15;98712.34;5062762;28;20032;-77
2022/02/20 02:48:26;;;;;;;6.00;1.20;;;;;;;0.59;90.49;98718.34;5062517;28;20429;-77
2022/02/20 02:50:52;;;;;;;3.50;1.10;;;;;;;0.55;90.31;98714.91;5062749;28;20021;-76
2022/02/20 02:53:17;;;;;;;2.75;1.27;;;;;;;0.54;90.20;98727.66;5062711;28;20040;-77
2022/02/20 02:55:44;;;;;;;4.03;1.42;;;;;;;0.49;90.17;98720.84;5062505;28;20021;-77
2022/02/20 02:58:09;;;;;;;9.02;1.58;;;;;;;0.41;90.18;98725.03;5062582;28;20039;-76
2022/02/20 03:00:35;;;;;;;15.90;1.65;;;;;;;0.33;89.92;98716.47;5046663;28;20017;-77
2022/02/20 03:03:01;;;;;;;3.55;1.50;;;;;;;0.37;89.97;98730.97;5066597;28;20036;-77
2022/02/20 03:05:26;;;;;;;4.70;1.10;;;;;;;0.26;89.93;98722.41;5066293;28;20118;-76
2022/02/20 03:07:52;;;;;;;9.98;1.20;;;;;;;0.24;89.59;98725.78;5066605;28;20026;-77
2022/02/20 03:10:17;;;;;;;7.47;1.45;;;;;;;0.16;89.86;98731.69;5066465;28;20089;-76
2022/02/20 03:12:42;;;;;;;3.83;1.30;;;;;;;0.15;89.67;98730.84;5066277;28;20119;-77
2022/02/20 03:15:08;;;;;;;6.88;1.17;;;;;;;0.06;89.78;98734.19;5066165;28;20115;-77
2022/02/20 03:17:34;;;;;;;4.30;1.20;;;;;;;0.08;89.57;98744.41;5048534;28;20331;-78
2022/02/20 03:19:59;;;;;;;2.20;1.27;;;;;;;0.03;89.47;98746.06;5066281;28;20028;-77
2022/02/20 03:22:24;;;;;;;2.63;1.17;;;;;;;-0.08;89.43;98745.97;5066194;28;20029;-77
2022/02/20 03:24:50;;;;;;;1.85;1.25;;;;;;;-0.14;89.32;98752.72;5065767;28;20112;-76
2022/02/20 03:27:16;;;;;;;4.43;1.58;;;;;;;-0.22;89.26;98740.78;5065520;28;20138;-77
2022/02/20 03:29:41;;;;;;;3.35;1.10;;;;;;;-0.26;89.28;98753.47;5047142;28;20060;-77
2022/02/20 03:32:07;;;;;;;4.45;1.63;;;;;;;-0.31;89.15;98762.78;5048160;28;20024;-77
2022/02/20 03:34:32;;;;;;;5.57;1.38;;;;;;;-0.38;89.20;98750.81;5047989;28;20104;-77
2022/02/20 03:36:58;;;;;;;5.43;1.23;;;;;;;-0.34;89.27;98767.88;5066048;28;20029;-77
2022/02/20 03:39:23;;;;;;;4.13;1.10;;;;;;;-0.41;89.12;98766.09;5066015;28;20353;-76
2022/02/20 03:41:49;;;;;;;7.43;1.45;;;;;;;-0.43;88.97;98772.88;5065759;28;20088;-77
2022/02/20 03:44:14;;;;;;;5.30;1.05;;;;;;;-0.52;89.08;98768.53;5065911;28;20024;-76
2022/02/20 03:46:40;;;;;;;2.17;1.17;;;;;;;-0.47;89.03;98777.09;5065753;28;20480;-77
2022/02/20 03:49:05;;;;;;;9.63;1.63;;;;;;;-0.49;89.08;98776.22;5065997;28;20032;-77
2022/02/20 03:51:30;;;;;;;4.35;1.40;;;;;;;-0.54;89.02;98772.75;5065592;28;20029;-76
2022/02/20 03:53:56;;;;;;;7.15;1.40;;;;;;;-0.54;89.04;98775.31;5047893;28;20057;-77
2022/02/20 03:56:21;;;;;;;2.42;1.30;;;;;;;-0.55;89.14;98777.00;5065385;28;20038;-77
2022/02/20 03:58:46;;;;;;;2.30;1.30;;;;;;;-0.59;89.17;98775.25;5065655;28;20029;-78
2022/02/20 04:01:12;;;;;;;9.13;1.90;;;;;;;-0.61;88.92;98768.44;5047831;28;20025;-78
2022/02/20 04:03:37;;;;;;;11.40;1.65;;;;;;;-0.60;88.81;98770.13;5065843;28;20080;-78
2022/02/20 04:06:03;;;;;;;7.28;1.55;;;;;;;-0.68;88.87;98768.38;5065915;28;20025;-78
2022/02/20 04:08:28;;;;;;;3.28;1.20;;;;;;;-0.65;88.78;98778.59;5065637;28;20024;-78
2022/02/20 04:10:54;;;;;;;7.35;1.50;;;;;;;-0.68;88.56;98778.56;5064921;28;20028;-78
2022/02/20 04:13:19;;;;;;;4.38;1.17;;;;;;;-0.68;88.93;98772.63;5065165;28;20040;-78
2022/02/20 04:15:44;;;;;;;10.10;1.50;;;;;;;-0.80;88.70;98769.09;5065343;28;20025;-78
2022/02/20 04:18:10;;;;;;;7.90;1.27;;;;;;;-0.77;88.50;98773.38;5065443;28;20021;-78
2022/02/20 04:20:35;;;;;;;3.33;1.33;;;;;;;-0.77;88.48;98768.28;5047064;28;20111;-78
2022/02/20 04:23:00;;;;;;;5.22;1.20;;;;;;;-0.78;88.42;98776.75;5065005;28;20025;-77
2022/02/20 04:25:26;;;;;;;4.53;1.27;;;;;;;-0.80;88.38;98778.44;5064590;28;20049;-78
2022/02/20 04:27:51;;;;;;;6.60;1.63;;;;;;;-0.81;88.26;98771.63;5046849;28;20028;-77
2022/02/20 04:30:18;;;;;;;9.48;1.55;;;;;;;-0.85;88.26;98770.75;5064900;28;20031;-76
2022/02/20 04:32:44;;;;;;;6.75;1.60;;;;;;;-0.91;88.04;98778.31;5064876;28;20033;-77
2022/02/20 04:35:10;;;;;;;5.78;1.08;;;;;;;-0.94;87.58;98778.28;5046742;28;20024;-76
2022/02/20 04:37:35;;;;;;;4.45;1.38;;;;;;;-0.95;87.90;98781.66;5064831;28;20072;-77
2022/02/20 04:40:03;;;;;;;8.38;1.83;;;;;;;-1.03;88.01;98782.44;5064934;28;20025;-77
2022/02/20 04:42:28;;;;;;;5.30;1.50;;;;;;;-1.20;87.69;98753.34;5046554;28;20025;-78
2022/02/20 04:44:54;;;;;;;6.68;1.25;;;;;;;-1.02;87.81;98778.16;5046838;28;20060;-77
2022/02/20 04:47:19;;;;;;;4.72;1.35;;;;;;;-1.03;87.89;98782.44;5064862;28;20055;-76
2022/02/20 04:49:44;;;;;;;3.15;1.40;;;;;;;-1.10;87.73;98772.97;5064785;28;20134;-76
2022/02/20 04:52:10;;;;;;;5.57;1.55;;;;;;;-1.11;88.00;98768.72;5046641;28;20044;-76
2022/02/20 04:54:35;;;;;;;2.97;1.00;;;;;;;-1.11;87.97;98773.81;5064471;28;20053;-76
2022/02/20 04:57:01;;;;;;;6.35;1.40;;;;;;;-1.04;87.98;98790.88;5046288;28;20024;-77
2022/02/20 04:59:26;;;;;;;4.55;1.35;;;;;;;-1.08;87.91;98781.50;5064516;28;20512;-76
2022/02/20 05:01:51;;;;;;;2.83;1.30;;;;;;;-1.08;88.00;98785.72;5046437;28;20044;-76
2022/02/20 05:04:17;;;;;;;4.70;1.40;;;;;;;-1.09;88.11;98778.94;5064406;28;20032;-76
2022/02/20 05:06:42;;;;;;;5.63;2.83;;;;;;;-1.07;87.98;98783.19;5046148;28;20025;-76
2022/02/20 05:09:07;;;;;;;11.13;1.42;;;;;;;-1.11;87.97;98771.28;5046266;28;20110;-76
2022/02/20 05:11:33;;;;;;;6.70;1.42;;;;;;;-1.01;88.08;98769.72;5064106;28;20025;-76
2022/02/20 05:13:59;;;;;;;5.93;1.23;;;;;;;-1.02;88.11;98778.16;5046187;28;20063;-76
2022/02/20 05:16:26;;;;;;;3.75;1.83;;;;;;;-1.03;88.07;98766.28;5045935;28;20115;-75
2022/02/20 05:18:52;;;;;;;8.85;1.90;;;;;;;-1.02;88.15;98773.94;5045886;28;20025;-76
2022/02/20 05:21:18;;;;;;;7.65;1.92;;;;;;;-1.06;87.85;98776.44;5064149;28;20032;-76
2022/02/20 05:23:44;;;;;;;2.10;1.50;;;;;;;-1.07;87.39;98779.81;5063156;28;20017;-76
2022/02/20 05:26:11;;;;;;;5.78;1.52;;;;;;;-1.08;86.75;98773.88;5063469;28;20079;-77
2022/02/20 05:28:37;;;;;;;4.70;1.50;;;;;;;-1.08;86.13;98770.44;5064119;28;20066;-77
2022/02/20 05:31:02;;;;;;;4.90;1.83;;;;;;;-1.08;85.94;98773.88;5063861;28;20049;-77
2022/02/20 05:33:27;;;;;;;10.85;1.65;;;;;;;-1.06;85.69;98768.78;5045675;28;20339;-77
2022/02/20 05:35:53;;;;;;;11.60;1.90;;;;;;;-1.02;85.46;98778.16;5063788;28;20047;-77
2022/02/20 05:38:18;;;;;;;3.90;1.30;;;;;;;-1.01;85.70;98772.25;5045726;28;20104;-77
2022/02/20 05:40:44;;;;;;;7.47;2.63;;;;;;;-0.98;85.71;98766.34;5063494;28;20085;-76
2022/02/20 05:43:09;;;;;;;7.78;1.73;;;;;;;-0.92;85.89;98767.25;5063711;28;20032;-77
2022/02/20 05:45:35;;;;;;;6.65;1.65;;;;;;;-0.98;86.38;98756.13;5063298;28;20021;-77
2022/02/20 05:48:00;;;;;;;3.20;2.20;;;;;;;-0.81;86.83;98774.16;5045481;28;20430;-76
2022/02/20 05:50:26;;;;;;;11.65;1.80;;;;;;;-0.83;86.84;98763.94;5063520;28;20032;-77
2022/02/20 05:52:51;;;;;;;4.88;1.90;;;;;;;-0.68;87.36;98778.56;5045456;28;20489;-77
2022/02/20 05:55:17;;;;;;;10.68;2.67;;;;;;;-0.80;87.39;98765.69;5063296;28;20029;-76
2022/02/20 05:57:53;;;;;;;4.38;1.35;;;;;;;-0.68;87.22;98787.91;5063210;28;20020;-76
2022/02/20 06:00:26;;;;;;;10.48;1.75;;;;;;;-0.67;86.89;98787.09;5063412;28;20035;-76
2022/02/20 06:02:52;;;;;;;6.68;1.25;;;;;;;-0.67;87.11;98782.00;5063264;28;20578;-76
2022/02/20 06:05:18;;;;;;;7.60;2.15;;;;;;;-0.78;87.13;98777.59;5063256;28;20032;-77
2022/02/20 06:07:44;;;;;;;5.25;1.65;;;;;;;-0.74;86.63;98778.50;5063564;28;20025;-76
2022/02/20 06:10:10;;;;;;;13.20;2.08;;;;;;;-0.57;86.63;98799.06;5063451;28;20032;-77
2022/02/20 06:12:36;;;;;;;11.52;1.70;;;;;;;-0.56;86.71;98788.03;5045096;28;20491;-76
2022/02/20 06:15:03;;;;;;;5.82;1.30;;;;;;;-0.70;86.54;98769.22;5063048;28;20029;-76
2022/02/20 06:17:28;;;;;;;8.43;2.03;;;;;;;-0.53;86.91;98782.13;5063037;28;20017;-76
2022/02/20 06:19:54;;;;;;;4.63;1.17;;;;;;;-0.55;87.13;98776.16;5063081;28;20086;-77
2022/02/20 06:22:19;;;;;;;7.90;1.52;;;;;;;-0.56;86.88;98777.00;5063115;28;20029;-76
2022/02/20 06:24:45;;;;;;;6.80;1.70;;;;;;;-0.57;86.23;98776.13;5063017;28;20028;-75
2022/02/20 06:27:10;;;;;;;3.33;1.30;;;;;;;-0.56;86.07;98788.03;5062722;28;20084;-76
2022/02/20 06:29:36;;;;;;;6.53;1.80;;;;;;;-0.59;86.10;98784.63;5062996;28;20071;-76
2022/02/20 06:32:02;;;;;;;7.55;1.77;;;;;;;-0.53;86.14;98787.22;5044903;28;20039;-75
2022/02/20 06:34:27;;;;;;;7.35;1.40;;;;;;;-0.73;86.16;98758.94;5062610;28;20044;-74
2022/02/20 06:36:53;;;;;;;2.95;1.10;;;;;;;-0.61;86.02;98773.53;5062775;28;20029;-75
2022/02/20 06:39:19;;;;;;;5.55;1.40;;;;;;;-0.54;85.84;98778.72;5062837;28;20032;-75
2022/02/20 06:41:45;;;;;;;10.60;1.60;;;;;;;-0.54;85.48;98781.25;5062543;28;20084;-76
2022/02/20 06:44:10;;;;;;;7.50;1.50;;;;;;;-0.58;85.78;98768.47;5044869;28;20051;-76
2022/02/20 06:46:36;;;;;;;9.45;1.48;;;;;;;-0.45;85.83;98793.28;5062727;28;20098;-75
2022/02/20 06:49:02;;;;;;;9.57;2.03;;;;;;;-0.44;85.71;98794.97;5062730;28;20096;-75
2022/02/20 06:51:28;;;;;;;6.13;1.33;;;;;;;-0.36;85.96;98794.19;5062665;28;20032;-75
2022/02/20 06:53:54;;;;;;;9.32;1.45;;;;;;;-0.37;86.08;98793.34;5062672;28;20017;-77
2022/02/20 06:56:20;;;;;;;6.38;1.77;;;;;;;-0.50;85.80;98765.16;5062374;28;20028;-75
2022/02/20 06:58:46;;;;;;;6.82;1.23;;;;;;;-0.38;86.19;98776.31;5044727;28;20481;-75
2022/02/20 07:01:11;;;;;;;8.20;2.75;;;;;;;-0.30;86.02;98795.09;5062350;28;20040;-77
2022/02/20 07:03:37;;;;;;;7.97;1.10;;;;;;;-0.25;85.67;98792.59;5063050;28;20033;-78
2022/02/20 07:06:04;;;;;;;2.70;1.13;;;;;;;-0.21;86.05;98788.38;5062418;28;20442;-79
2022/02/20 07:08:29;;;;;;;4.55;1.10;;;;;;;-0.11;85.76;98799.53;5062247;28;20043;-78
2022/02/20 07:10:55;;;;;;;10.15;2.60;;;;;;;0.03;85.77;98800.50;5044098;28;20017;-78
2022/02/20 07:13:20;;;;;;;5.38;1.20;;;;;;;0.16;86.54;98793.78;5062779;28;20025;-79
2022/02/20 07:15:46;;;;;;;7.28;1.40;;;;;;;0.35;86.54;98788.84;5064347;28;20044;-79
2022/02/20 07:18:12;;;;;;;3.75;1.05;;;;;;;0.69;87.11;98793.28;5046222;28;20067;-79
2022/02/20 07:20:37;;;;;;;4.03;0.80;;;;;;;1.30;87.36;98796.97;5044961;28;20024;-80
2022/02/20 07:23:03;;;;;;;4.20;1.20;;;;;;;1.98;86.96;98783.44;5045086;28;20128;-79
2022/02/20 07:25:28;;;;;;;5.53;1.50;;;;;;;2.71;85.69;98790.22;5044431;28;20045;-79
2022/02/20 07:27:54;;;;;;;7.25;1.80;;;;;;;3.37;84.91;98795.06;5061807;28;20096;-79
2022/02/20 07:30:21;;;;;;;4.25;1.60;;;;;;;3.94;85.65;98793.03;5061999;28;20024;-79
2022/02/20 07:32:49;;;;;;;3.28;1.08;;;;;;;4.38;87.91;98793.53;5063048;28;20226;-78
2022/02/20 07:35:15;;;;;;;5.07;1.10;;;;;;;4.64;85.01;98795.00;5045303;28;20116;-80
2022/02/20 07:37:41;;;;;;;6.38;1.30;;;;;;;4.88;84.02;98784.47;5045912;28;20389;-75
2022/02/20 07:40:07;;;;;;;5.72;1.20;;;;;;;5.16;81.77;98797.84;5062427;28;20037;-79
2022/02/20 07:42:34;;;;;;;6.03;1.10;;;;;;;5.51;83.66;98789.72;5044654;28;20110;-79
2022/02/20 07:44:59;;;;;;;3.00;1.10;;;;;;;5.77;86.26;98784.16;5062341;28;20041;-79
2022/02/20 07:47:26;;;;;;;4.43;1.45;;;;;;;5.86;82.98;98761.72;5047316;28;20132;-78
2022/02/20 07:49:51;;;;;;;2.97;1.13;;;;;;;6.16;79.73;98790.47;5065891;28;20489;-77
2022/02/20 07:52:16;;;;;;;3.22;1.35;;;;;;;6.37;78.58;98789.28;5066016;28;20033;-79
2022/02/20 07:54:42;;;;;;;7.70;1.27;;;;;;;6.50;79.00;98776.16;5047901;28;20024;-78
2022/02/20 07:57:07;;;;;;;6.40;1.17;;;;;;;6.81;78.95;98796.22;5065430;28;20024;-78
2022/02/20 07:59:33;;;;;;;9.38;1.58;;;;;;;6.92;81.39;98786.56;5065744;28;20089;-78
2022/02/20 08:01:58;;;;;;;11.50;1.60;;;;;;;7.02;79.58;98773.47;5065628;28;20331;-77
2022/02/20 08:04:24;;;;;;;7.10;1.40;;;;;;;7.21;79.18;98773.06;5065384;28;20039;-77
2022/02/20 08:06:51;;;;;;;6.22;1.48;;;;;;;7.37;77.50;98781.34;5047288;28;20025;-78
2022/02/20 08:09:17;;;;;;;6.03;1.60;;;;;;;7.77;75.95;98784.78;5065459;28;20037;-79
2022/02/20 08:11:42;;;;;;;5.05;1.25;;;;;;;8.22;74.22;98790.63;5065087;28;20032;-78
2022/02/20 08:14:07;;;;;;;4.40;1.17;;;;;;;8.61;72.79;98775.00;5065826;28;20028;-79
2022/02/20 08:16:33;;;;;;;8.05;1.35;;;;;;;9.01;72.69;98775.63;5047129;28;20119;-78
2022/02/20 08:18:58;;;;;;;7.85;1.13;;;;;;;9.24;70.22;98776.72;5065161;28;20100;-76
2022/02/20 08:21:24;;;;;;;5.47;1.23;;;;;;;9.24;67.98;98796.56;5046989;28;20017;-75
2022/02/20 08:23:52;;;;;;;4.72;1.30;;;;;;;9.08;69.60;98783.22;5064898;28;20461;-76
2022/02/20 08:26:18;;;;;;;10.23;1.30;;;;;;;8.93;69.66;98781.03;5064418;28;20041;-76
2022/02/20 08:28:43;;;;;;;7.20;1.90;;;;;;;8.51;68.99;98778.69;5047034;28;20021;-77
2022/02/20 08:31:10;;;;;;;5.35;1.20;;;;;;;8.11;69.22;98783.13;5065113;28;20025;-77
2022/02/20 08:33:35;;;;;;;3.83;1.15;;;;;;;7.79;69.84;98773.53;5046698;28;20021;-76
2022/02/20 08:36:01;;;;;;;7.65;2.15;;;;;;;7.47;70.83;98766.50;5064820;28;20071;-77
2022/02/20 08:38:27;;;;;;;5.55;1.45;;;;;;;7.11;71.28;98767.28;5046954;28;20397;-76
2022/02/20 08:40:53;;;;;;;4.93;1.10;;;;;;;6.76;71.26;98769.66;5064724;28;20033;-76
2022/02/20 08:43:20;;;;;;;4.03;1.45;;;;;;;6.56;72.35;98768.31;5064583;28;20409;-74
2022/02/20 08:45:48;;;;;;;7.90;1.98;;;;;;;6.57;72.35;98767.44;5064794;28;20082;-76
2022/02/20 08:48:16;;;;;;;4.55;1.70;;;;;;;6.48;72.21;98759.88;5064680;28;20024;-75
2022/02/20 08:50:43;;;;;;;10.85;2.40;;;;;;;6.49;72.28;98761.56;5064539;28;20029;-76
2022/02/20 08:53:10;;;;;;;7.47;1.75;;;;;;;6.52;71.81;98753.78;5064615;28;20028;-75
2022/02/20 08:55:35;;;;;;;9.15;2.88;;;;;;;6.56;71.66;98763.16;5064554;28;20123;-75
2022/02/20 08:58:00;;;;;;;7.03;1.50;;;;;;;6.43;72.13;98744.50;5063195;28;20021;-74
2022/02/20 09:00:26;;;;;;;2.95;1.27;;;;;;;6.36;72.36;98748.91;5064487;28;20031;-74
2022/02/20 09:02:51;;;;;;;9.45;1.70;;;;;;;6.28;72.63;98754.19;5064960;28;20036;-73
2022/02/20 09:05:18;;;;;;;6.97;1.70;;;;;;;6.02;72.01;98734.84;5064524;28;20028;-75
2022/02/20 09:07:43;;;;;;;10.73;2.60;;;;;;;6.00;72.11;98743.47;5046414;28;20376;-75
2022/02/20 09:10:09;;;;;;;11.77;1.60;;;;;;;5.83;72.41;98742.88;5064277;28;20044;-73
2022/02/20 09:12:36;;;;;;;11.13;2.58;;;;;;;5.59;72.71;98738.97;5064134;28;20374;-73
2022/02/20 09:15:04;;;;;;;9.05;1.80;;;;;;;5.43;72.94;98746.06;5063908;28;20021;-74
2022/02/20 09:17:30;;;;;;;11.35;2.22;;;;;;;5.20;73.01;98736.91;5063798;28;20052;-76
2022/02/20 09:19:56;;;;;;;7.40;1.98;;;;;;;4.98;72.33;98726.91;5064024;28;20021;-73
2022/02/20 09:22:21;;;;;;;9.38;1.40;;;;;;;4.74;73.36;98717.78;5064083;28;20020;-74
2022/02/20 09:24:47;;;;;;;5.53;1.95;;;;;;;4.81;74.15;98738.25;5063748;28;20028;-73
2022/02/20 09:27:12;;;;;;;5.30;1.90;;;;;;;4.78;74.35;98738.28;5063630;28;20063;-73
2022/02/20 09:29:38;;;;;;;6.90;1.38;;;;;;;4.70;74.13;98740.94;5063880;28;20032;-73
2022/02/20 09:32:03;;;;;;;3.33;1.00;;;;;;;4.55;74.80;98731.69;5046863;28;20025;-73
2022/02/20 09:34:29;;;;;;;9.40;2.20;;;;;;;4.44;74.19;98742.06;5063889;28;20042;-74
2022/02/20 09:36:54;;;;;;;10.05;1.90;;;;;;;4.31;74.76;98737.94;5063695;28;20013;-74
2022/02/20 09:39:23;;;;;;;5.30;1.60;;;;;;;4.24;74.82;98737.13;5063926;28;20013;-75
2022/02/20 09:41:48;;;;;;;10.57;2.15;;;;;;;4.18;75.46;98719.22;5063658;28;20464;-75
2022/02/20 09:44:13;;;;;;;12.95;2.40;;;;;;;4.14;74.99;98720.97;5046060;28;20043;-73
2022/02/20 09:46:44;;;;;;;14.43;2.00;;;;;;;4.14;75.40;98710.69;5045701;28;20032;-74
2022/02/20 09:49:09;;;;;;;9.25;1.80;;;;;;;4.22;76.66;98705.47;5063699;28;20096;-75
2022/02/20 09:51:37;;;;;;;11.95;1.60;;;;;;;4.18;76.10;98689.25;5063777;28;20021;-74
2022/02/20 09:54:03;;;;;;;9.23;1.60;;;;;;;4.33;76.92;98693.38;5045325;28;20088;-75
2022/02/20 09:56:28;;;;;;;7.95;1.98;;;;;;;4.50;77.46;98700.06;5063058;28;20095;-73
2022/02/20 09:58:55;;;;;;;10.00;1.50;;;;;;;4.63;77.40;98695.63;5063501;28;20025;-72
2022/02/20 10:01:20;;;;;;;10.93;1.60;;;;;;;5.05;78.28;98676.22;5063237;28;20540;-71
2022/02/20 10:03:48;;;;;;;9.18;1.85;;;;;;;5.66;78.55;98688.22;5063525;28;20025;-72
2022/02/20 10:06:17;;;;;;;316.25;18.50;;;;;;;6.14;78.86;98679.72;5062929;28;20029;-67
2022/02/20 10:08:51;;;;;;;17.65;2.17;;;;;;;6.53;77.75;98670.41;5062779;28;20027;-66
2022/02/20 10:11:20;;;;;;;16.48;2.90;;;;;;;6.85;76.63;98679.22;5045699;28;20028;-66
2022/02/20 10:13:47;;;;;;;9.25;1.98;;;;;;;6.94;75.71;98684.19;5063147;28;20021;-66
2022/02/20 10:16:18;;;;;;;7.03;2.00;;;;;;;7.17;75.13;98679.41;5062873;28;20020;-66
2022/02/20 10:18:46;;;;;;;6.25;1.23;;;;;;;7.63;75.62;98677.47;5062738;28;20035;-66
2022/02/20 10:21:16;;;;;;;12.13;1.60;;;;;;;8.08;74.65;98677.25;5062709;28;20028;-66
2022/02/20 10:23:42;;;;;;;4.60;1.60;;;;;;;8.68;72.79;98673.06;5045454;28;20017;-66
2022/02/20 10:26:13;;;;;;;11.90;1.35;;;;;;;9.10;70.95;98670.13;5062019;28;20713;-66
2022/02/20 10:29:02;;;;;;;7.72;1.92;;;;;;;9.53;70.59;98673.97;5063021;28;20055;-66
2022/02/20 10:31:54;;;;;;;7.10;1.63;;;;;;;9.82;69.25;98663.56;5062847;28;20052;-67
2022/02/20 10:34:28;;;;;;;8.02;1.65;;;;;;;9.87;65.38;98647.84;5063100;28;20028;-66
2022/02/20 10:37:05;;;;;;;5.63;1.67;;;;;;;9.90;65.54;98648.56;5062705;28;20029;-67
2022/02/20 10:39:34;;;;;;;12.23;2.08;;;;;;;9.95;65.84;98650.16;5062700;28;20029;-67
2022/02/20 10:42:00;;;;;;;10.80;1.90;;;;;;;9.62;64.55;98649.50;5062831;28;20056;-67
2022/02/20 10:44:26;;;;;;;4.88;1.77;;;;;;;9.44;63.46;98647.53;5063055;28;20043;-66
2022/02/20 10:47:12;;;;;;;8.35;1.75;;;;;;;9.04;64.77;98640.94;5062728;28;20029;-66
2022/02/20 10:49:38;;;;;;;6.78;2.08;;;;;;;8.55;62.47;98635.47;5044822;28;20025;-67
2022/02/20 10:52:04;;;;;;;11.52;2.20;;;;;;;7.99;64.00;98632.66;5062883;28;20028;-65
2022/02/20 10:54:29;;;;;;;8.23;1.90;;;;;;;7.58;66.39;98638.00;5044644;28;20025;-66
2022/02/20 10:56:55;;;;;;;10.35;2.55;;;;;;;7.40;65.54;98632.38;5062234;28;20027;-66
2022/02/20 10:59:21;;;;;;;11.02;1.65;;;;;;;7.42;67.83;98624.59;5062702;28;20263;-67
2022/02/20 11:01:48;;;;;;;8.23;1.92;;;;;;;7.65;65.89;98618.88;5062472;28;20029;-66
2022/02/20 11:04:15;;;;;;;5.78;1.20;;;;;;;7.90;64.92;98626.00;5062721;28;20017;-67
2022/02/20 11:06:44;;;;;;;7.55;1.58;;;;;;;7.86;64.44;98614.03;5062155;28;20089;-67
2022/02/20 11:09:10;;;;;;;9.38;1.65;;;;;;;7.80;64.80;98604.72;5062573;28;20076;-67
2022/02/20 11:11:40;;;;;;;10.10;1.13;;;;;;;7.55;63.24;98609.66;5062269;28;20071;-67
2022/02/20 11:14:09;;;;;;;7.00;1.45;;;;;;;7.42;64.90;98599.66;5062714;28;20128;-66
2022/02/20 11:16:38;;;;;;;7.10;2.67;;;;;;;7.44;64.91;98594.44;5062649;28;20097;-68
2022/02/20 11:19:05;;;;;;;11.15;1.75;;;;;;;7.65;65.11;98595.63;5062581;28;20029;-67
2022/02/20 11:21:37;;;;;;;11.65;2.30;;;;;;;7.58;65.31;98591.50;5064532;28;20032;-69
2022/02/20 11:24:05;;;;;;;10.10;2.20;;;;;;;7.19;65.99;98585.56;5066275;28;20021;-66
2022/02/20 11:26:35;;;;;;;12.38;2.75;;;;;;;6.49;64.61;98576.78;5065713;28;20049;-65
2022/02/20 11:29:01;;;;;;;19.60;2.35;;;;;;;5.90;66.15;98573.63;5066191;28;20032;-65
2022/02/20 11:31:27;;;;;;;11.50;3.05;;;;;;;5.42;66.93;98574.47;5066075;28;20056;-68